createdAt,value
2023-01-19T00:01:30.487Z,97131.60
2023-01-19T00:03:57.491Z,97132.42
2023-01-19T00:06:24.355Z,97131.48
2023-01-19T00:08:51.407Z,97132.54
2023-01-19T00:11:18.887Z,97140.23
2023-01-19T00:13:53.973Z,97141.30
2023-01-19T00:16:23.451Z,97146.07
2023-01-19T00:18:52.591Z,97147.66
2023-01-19T00:21:21.926Z,97150.56
2023-01-19T00:23:51.377Z,97147.55
2023-01-19T00:26:19.282Z,97148.08
2023-01-19T00:28:46.291Z,97145.00
2023-01-19T00:31:13.416Z,97143.36
2023-01-19T00:33:40.482Z,97148.86
2023-01-19T00:36:08.363Z,97150.67
2023-01-19T00:38:35.289Z,97148.35
2023-01-19T00:41:02.369Z,97145.46
2023-01-19T00:43:29.403Z,97142.00
2023-01-19T00:46:02.513Z,97143.58
2023-01-19T00:48:31.903Z,97143.28
2023-01-19T00:51:05.656Z,97144.02
2023-01-19T00:53:37.475Z,97137.29
2023-01-19T00:56:12.582Z,97137.11
2023-01-19T00:58:39.613Z,97136.88
2023-01-19T01:01:06.722Z,97132.84
2023-01-19T01:03:33.586Z,97130.37
2023-01-19T01:06:01.174Z,97126.55
2023-01-19T01:08:28.099Z,97126.30
2023-01-19T01:10:55.846Z,97117.55
2023-01-19T01:13:26.194Z,97112.80
2023-01-19T01:15:55.968Z,97112.95
2023-01-19T01:18:23.605Z,97117.38
2023-01-19T01:20:50.594Z,97119.90
2023-01-19T01:23:23.124Z,97125.67
2023-01-19T01:25:50.415Z,97133.48
2023-01-19T01:28:17.342Z,97134.03
2023-01-19T01:30:44.890Z,97134.30
2023-01-19T01:33:12.370Z,97131.71
2023-01-19T01:35:40.049Z,97128.20
2023-01-19T01:38:06.964Z,97119.98
2023-01-19T01:40:33.797Z,97119.09
2023-01-19T01:43:01.000Z,97118.98
2023-01-19T01:45:40.264Z,97118.80
2023-01-19T01:48:12.850Z,97128.31
2023-01-19T01:51:08.673Z,97130.09
2023-01-19T01:53:37.751Z,97130.17
2023-01-19T01:56:10.054Z,97123.21
2023-01-19T01:58:39.127Z,97129.84
2023-01-19T02:01:26.659Z,97128.94
2023-01-19T02:03:57.794Z,97128.23
2023-01-19T02:06:26.177Z,97125.83
2023-01-19T02:09:23.748Z,97130.50
2023-01-19T02:12:10.164Z,97135.02
2023-01-19T02:14:40.149Z,97138.98
2023-01-19T02:17:08.118Z,97136.58
2023-01-19T02:19:42.031Z,97132.57
2023-01-19T02:22:27.665Z,97132.58
2023-01-19T02:24:54.865Z,97132.52
2023-01-19T02:27:21.830Z,97132.08
2023-01-19T02:29:49.065Z,97134.61
2023-01-19T02:32:15.980Z,97136.91
2023-01-19T02:34:43.026Z,97142.57
2023-01-19T02:37:17.661Z,97147.14
2023-01-19T02:40:00.953Z,97158.15
2023-01-19T02:42:33.066Z,97165.94
2023-01-19T02:45:00.388Z,97162.96
2023-01-19T02:47:27.348Z,97160.39
2023-01-19T02:49:58.592Z,97158.08
2023-01-19T02:52:26.548Z,97159.93
2023-01-19T02:55:13.452Z,97161.79
2023-01-19T02:57:59.029Z,97163.10
2023-01-19T03:01:00.006Z,97159.06
2023-01-19T03:03:48.413Z,97162.27
2023-01-19T03:06:46.706Z,97161.80
2023-01-19T03:09:35.585Z,97157.03
2023-01-19T03:12:15.702Z,97160.17
2023-01-19T03:14:48.374Z,97158.48
2023-01-19T03:17:19.275Z,97158.63
2023-01-19T03:19:49.919Z,97166.10
2023-01-19T03:22:27.414Z,97164.72
2023-01-19T03:24:59.628Z,97168.86
2023-01-19T03:27:41.696Z,97166.78
2023-01-19T03:30:13.389Z,97167.71
2023-01-19T03:32:50.330Z,97179.05
2023-01-19T03:35:20.065Z,97186.23
2023-01-19T03:37:50.943Z,97187.04
2023-01-19T03:40:18.466Z,97188.88
2023-01-19T03:42:46.359Z,97186.34
2023-01-19T03:45:14.651Z,97181.84
2023-01-19T03:47:42.352Z,97187.47
2023-01-19T03:50:21.081Z,97193.74
2023-01-19T03:53:18.545Z,97197.42
2023-01-19T03:55:48.307Z,97204.30
2023-01-19T03:58:15.240Z,97204.61
2023-01-19T04:00:42.552Z,97201.92
2023-01-19T04:03:17.065Z,97201.20
2023-01-19T04:05:45.082Z,97207.98
2023-01-19T04:08:12.994Z,97212.93
2023-01-19T04:10:40.348Z,97211.96
2023-01-19T04:13:07.385Z,97207.38
2023-01-19T04:15:34.521Z,97202.98
2023-01-19T04:18:02.085Z,97205.29
2023-01-19T04:20:29.245Z,97210.95
2023-01-19T04:23:01.103Z,97213.08
2023-01-19T04:25:29.128Z,97213.11
2023-01-19T04:27:58.648Z,97217.73
2023-01-19T04:30:27.599Z,97219.00
2023-01-19T04:32:56.007Z,97229.29
2023-01-19T04:35:24.201Z,97236.20
2023-01-19T04:37:51.465Z,97235.08
2023-01-19T04:40:18.647Z,97238.39
2023-01-19T04:42:46.666Z,97235.25
2023-01-19T04:45:14.492Z,97236.40
2023-01-19T04:47:42.940Z,97244.52
2023-01-19T04:50:11.758Z,97247.89
2023-01-19T04:52:39.146Z,97246.50
2023-01-19T04:55:07.704Z,97247.98
2023-01-19T04:57:34.547Z,97249.02
2023-01-19T05:00:01.477Z,97250.84
2023-01-19T05:02:28.813Z,97249.19
2023-01-19T05:04:56.024Z,97251.12
2023-01-19T05:07:22.946Z,97251.77
2023-01-19T05:09:50.106Z,97248.63
2023-01-19T05:12:17.127Z,97250.27
2023-01-19T05:14:44.306Z,97247.16
2023-01-19T05:17:11.947Z,97245.13
2023-01-19T05:19:39.426Z,97243.08
2023-01-19T05:22:06.924Z,97237.23
2023-01-19T05:24:34.225Z,97229.38
2023-01-19T05:27:01.589Z,97221.98
2023-01-19T05:29:28.495Z,97224.38
2023-01-19T05:31:55.485Z,97226.20
2023-01-19T05:34:22.712Z,97220.39
2023-01-19T05:36:49.534Z,97221.34
2023-01-19T05:39:16.586Z,97220.06
2023-01-19T05:41:45.885Z,97218.16
2023-01-19T05:44:13.527Z,97223.99
2023-01-19T05:46:40.767Z,97225.77
2023-01-19T05:49:08.241Z,97227.09
2023-01-19T05:51:38.360Z,97230.36
2023-01-19T05:54:06.539Z,97236.25
2023-01-19T05:56:33.665Z,97236.10
2023-01-19T05:59:01.254Z,97236.52
2023-01-19T06:01:28.757Z,97233.41
2023-01-19T06:03:55.836Z,97227.94
2023-01-19T06:06:22.869Z,97224.36
2023-01-19T06:08:49.819Z,97225.32
2023-01-19T06:11:17.191Z,97230.10
2023-01-19T06:13:44.149Z,97231.89
2023-01-19T06:16:12.308Z,97231.13
2023-01-19T06:18:39.346Z,97231.50
2023-01-19T06:21:08.649Z,97242.33
2023-01-19T06:23:36.191Z,97258.19
2023-01-19T06:26:03.349Z,97269.75
2023-01-19T06:28:30.270Z,97279.06
2023-01-19T06:30:57.693Z,97281.55
2023-01-19T06:33:26.007Z,97282.43
2023-01-19T06:35:53.121Z,97281.39
2023-01-19T06:38:20.509Z,97294.64
2023-01-19T06:40:58.904Z,97294.38
2023-01-19T06:43:27.129Z,97302.84
2023-01-19T06:45:55.093Z,97308.71
2023-01-19T06:48:22.947Z,97312.61
2023-01-19T06:50:50.166Z,97321.24
2023-01-19T06:53:18.028Z,97328.58
2023-01-19T06:55:45.309Z,97326.96
2023-01-19T06:58:12.947Z,97329.65
2023-01-19T07:00:40.147Z,97337.64
2023-01-19T07:03:08.103Z,97344.95
2023-01-19T07:05:36.675Z,97345.89
2023-01-19T07:08:04.313Z,97343.51
2023-01-19T07:11:24.816Z,97349.59
2023-01-19T07:13:19.145Z,97356.14
2023-01-19T07:15:46.062Z,97367.48
2023-01-19T07:18:13.151Z,97370.13
2023-01-19T07:20:40.098Z,97376.14
2023-01-19T07:23:07.076Z,97384.23
2023-01-19T07:25:33.892Z,97388.86
2023-01-19T07:28:01.753Z,97382.92
2023-01-19T07:30:29.573Z,97387.83
2023-01-19T07:32:58.785Z,97383.21
2023-01-19T07:35:26.712Z,97386.41
2023-01-19T07:37:53.712Z,97389.55
2023-01-19T07:40:21.542Z,97389.97
2023-01-19T07:42:50.801Z,97383.14
2023-01-19T07:45:20.173Z,97375.83
2023-01-19T07:47:52.268Z,97379.86
2023-01-19T07:50:24.922Z,97391.27
2023-01-19T07:52:53.951Z,97390.49
2023-01-19T07:55:21.483Z,97391.51
2023-01-19T07:57:51.222Z,97392.16
2023-01-19T08:00:25.078Z,97399.33
2023-01-19T08:02:54.039Z,97403.62
2023-01-19T08:05:21.842Z,97403.57
2023-01-19T08:07:48.920Z,97410.64
2023-01-19T08:10:18.046Z,97414.09
2023-01-19T08:12:44.992Z,97408.38
2023-01-19T08:15:12.580Z,97399.89
2023-01-19T08:17:39.520Z,97410.87
2023-01-19T08:20:09.634Z,97423.47
2023-01-19T08:22:36.677Z,97416.92
2023-01-19T08:25:04.522Z,97401.56
2023-01-19T08:27:31.829Z,97399.73
2023-01-19T08:29:59.520Z,97398.97
2023-01-19T08:32:26.623Z,97408.88
2023-01-19T08:34:53.869Z,97411.68
2023-01-19T08:37:20.689Z,97409.68
2023-01-19T08:39:47.877Z,97417.70
2023-01-19T08:42:14.980Z,97411.33
2023-01-19T08:44:57.244Z,97404.63
2023-01-19T08:47:25.306Z,97421.89
2023-01-19T08:49:52.309Z,97434.52
2023-01-19T08:52:19.336Z,97435.56
2023-01-19T08:54:46.317Z,97437.34
2023-01-19T08:57:13.469Z,97444.20
2023-01-19T08:59:40.579Z,97453.27
2023-01-19T09:02:07.645Z,97446.29
2023-01-19T09:04:35.401Z,97436.67
2023-01-19T09:07:02.474Z,97440.88
2023-01-19T09:09:29.591Z,97446.27
2023-01-19T09:11:56.626Z,97454.61
2023-01-19T09:14:23.687Z,97461.45
2023-01-19T09:16:50.930Z,97462.59
2023-01-19T09:19:17.768Z,97465.63
2023-01-19T09:21:45.148Z,97465.31
2023-01-19T09:24:12.189Z,97458.90
2023-01-19T09:26:41.045Z,97462.30
2023-01-19T09:29:08.190Z,97461.48
2023-01-19T09:31:35.589Z,97454.05
2023-01-19T09:34:03.119Z,97449.20
2023-01-19T09:36:30.790Z,97453.05
2023-01-19T09:38:57.956Z,97456.93
2023-01-19T09:41:26.711Z,97447.83
2023-01-19T09:44:02.857Z,97436.61
2023-01-19T09:46:40.502Z,97436.70
2023-01-19T09:49:21.954Z,97437.98
2023-01-19T09:51:51.175Z,97429.88
2023-01-19T09:54:34.513Z,97430.98
2023-01-19T09:57:02.323Z,97437.09
2023-01-19T09:59:31.548Z,97440.59
2023-01-19T10:02:17.147Z,97443.25
2023-01-19T10:04:59.600Z,97437.72
2023-01-19T10:08:11.803Z,97438.88
2023-01-19T10:10:42.982Z,97437.65
2023-01-19T10:13:25.783Z,97434.53
2023-01-19T10:16:11.414Z,97433.58
2023-01-19T10:18:47.738Z,97432.46
2023-01-19T10:21:33.982Z,97423.95
2023-01-19T10:24:19.873Z,97426.02
2023-01-19T10:26:53.164Z,97425.15
2023-01-19T10:29:29.099Z,97429.75
2023-01-19T10:32:11.827Z,97425.02
2023-01-19T10:34:39.772Z,97416.80
2023-01-19T10:37:19.032Z,97411.73
2023-01-19T10:39:52.286Z,97414.93
2023-01-19T10:42:19.407Z,97413.34
2023-01-19T10:44:46.937Z,97412.86
2023-01-19T10:47:19.634Z,97414.80
2023-01-19T10:49:48.935Z,97412.77
2023-01-19T10:52:40.101Z,97410.81
2023-01-19T10:55:08.596Z,97410.71
2023-01-19T10:57:39.223Z,97406.08
2023-01-19T11:00:27.785Z,97409.15
2023-01-19T11:02:55.092Z,97407.14
2023-01-19T11:05:29.223Z,97407.67
2023-01-19T11:07:57.247Z,97403.20
2023-01-19T11:10:27.473Z,97401.73
2023-01-19T11:13:02.736Z,97399.40
2023-01-19T11:15:46.661Z,97403.51
2023-01-19T11:18:31.980Z,97404.59
2023-01-19T11:21:09.870Z,97405.29
2023-01-19T11:23:46.953Z,97405.71
2023-01-19T11:26:44.722Z,97399.58
2023-01-19T11:29:24.435Z,97402.54
2023-01-19T11:31:53.640Z,97399.20
2023-01-19T11:34:34.534Z,97402.58
2023-01-19T11:37:26.249Z,97403.79
2023-01-19T11:39:57.363Z,97396.22
2023-01-19T11:42:25.229Z,97389.58
2023-01-19T11:45:11.064Z,97396.52
2023-01-19T11:47:50.189Z,97394.30
2023-01-19T11:50:35.629Z,97394.17
2023-01-19T11:53:15.384Z,97393.07
2023-01-19T11:55:51.129Z,97393.42
2023-01-19T11:58:19.983Z,97398.69
2023-01-19T12:00:53.466Z,97402.45
2023-01-19T12:03:43.839Z,97396.98
2023-01-19T12:06:28.569Z,97396.70
2023-01-19T12:09:01.327Z,97403.48
2023-01-19T12:11:34.345Z,97400.60
2023-01-19T12:14:02.542Z,97398.24
2023-01-19T12:16:33.104Z,97398.90
2023-01-19T12:19:05.792Z,97396.60
2023-01-19T12:21:32.966Z,97402.42
2023-01-19T12:24:24.961Z,97399.55
2023-01-19T12:26:59.227Z,97402.87
2023-01-19T12:29:31.327Z,97401.55
2023-01-19T12:32:39.843Z,97399.70
2023-01-19T12:35:27.917Z,97391.38
2023-01-19T12:37:54.972Z,97390.88
2023-01-19T12:40:27.412Z,97396.50
2023-01-19T12:43:06.205Z,97396.02
2023-01-19T12:45:40.268Z,97395.73
2023-01-19T12:48:24.921Z,97397.95
2023-01-19T12:50:52.105Z,97397.52
2023-01-19T12:53:22.856Z,97402.38
2023-01-19T12:56:00.525Z,97401.05
2023-01-19T12:58:28.310Z,97405.85
2023-01-19T13:01:16.352Z,97407.96
2023-01-19T13:04:00.974Z,97407.16
2023-01-19T13:06:49.782Z,97413.06
2023-01-19T13:09:32.765Z,97414.83
2023-01-19T13:12:21.723Z,97415.45
2023-01-19T13:14:51.076Z,97418.89
2023-01-19T13:17:33.572Z,97423.80
2023-01-19T13:20:25.252Z,97428.95
2023-01-19T13:23:14.185Z,97437.94
2023-01-19T13:25:44.884Z,97434.95
2023-01-19T13:28:16.620Z,97436.67
2023-01-19T13:31:00.062Z,97436.46
2023-01-19T13:33:32.636Z,97433.46
2023-01-19T13:36:00.375Z,97439.05
2023-01-19T13:38:29.740Z,97441.70
2023-01-19T13:41:00.182Z,97447.71
2023-01-19T13:43:33.165Z,97459.05
2023-01-19T13:46:01.133Z,97459.80
2023-01-19T13:48:28.908Z,97462.59
2023-01-19T13:51:02.190Z,97461.77
2023-01-19T13:53:30.865Z,97465.48
2023-01-19T13:56:08.317Z,97466.87
2023-01-19T13:58:35.679Z,97465.95
2023-01-19T14:01:02.756Z,97467.23
2023-01-19T14:03:30.430Z,97470.45
2023-01-19T14:05:58.103Z,97475.17
2023-01-19T14:08:26.274Z,97480.02
2023-01-19T14:11:02.672Z,97480.91
2023-01-19T14:13:35.487Z,97481.15
2023-01-19T14:16:17.773Z,97483.10
2023-01-19T14:18:44.982Z,97488.00
2023-01-19T14:21:14.268Z,97483.16
2023-01-19T14:23:47.543Z,97479.08
2023-01-19T14:26:51.568Z,97477.09
2023-01-19T14:29:36.168Z,97481.50
2023-01-19T14:32:22.247Z,97488.23
2023-01-19T14:35:14.425Z,97484.39
2023-01-19T14:37:59.918Z,97489.02
2023-01-19T14:40:27.333Z,97493.42
2023-01-19T14:43:06.657Z,97498.81
2023-01-19T14:45:47.590Z,97492.65
2023-01-19T14:48:20.906Z,97493.20
2023-01-19T14:51:02.688Z,97491.10
2023-01-19T14:53:36.986Z,97493.48
2023-01-19T14:56:05.678Z,97497.36
2023-01-19T14:58:36.657Z,97501.25
2023-01-19T15:01:05.393Z,97496.27
2023-01-19T15:03:44.103Z,97502.09
2023-01-19T15:06:18.735Z,97499.77
2023-01-19T15:08:46.445Z,97499.30
2023-01-19T15:11:39.038Z,97498.85
2023-01-19T15:14:06.990Z,97504.40
2023-01-19T15:16:35.004Z,97500.63
2023-01-19T15:19:02.240Z,97501.31
2023-01-19T15:21:29.242Z,97502.77
2023-01-19T15:23:56.557Z,97504.96
2023-01-19T15:26:25.788Z,97506.19
2023-01-19T15:28:53.633Z,97510.79
2023-01-19T15:31:22.642Z,97508.27
2023-01-19T15:33:50.399Z,97507.19
2023-01-19T15:36:20.014Z,97508.33
2023-01-19T15:38:47.724Z,97508.91
2023-01-19T15:41:23.508Z,97515.18
2023-01-19T15:43:51.664Z,97514.81
2023-01-19T15:46:23.319Z,97514.06
2023-01-19T15:48:51.203Z,97515.42
2023-01-19T15:51:21.764Z,97516.89
2023-01-19T15:53:49.877Z,97517.63
2023-01-19T15:56:19.610Z,97520.77
2023-01-19T15:58:46.931Z,97514.45
2023-01-19T16:01:19.519Z,97515.14
2023-01-19T16:03:46.967Z,97519.17
2023-01-19T16:06:16.633Z,97522.61
2023-01-19T16:08:44.478Z,97526.86
2023-01-19T16:11:14.724Z,97529.86
2023-01-19T16:13:46.577Z,97534.08
2023-01-19T16:16:19.753Z,97539.63
2023-01-19T16:18:47.763Z,97537.58
2023-01-19T16:21:14.966Z,97537.20
2023-01-19T16:23:42.572Z,97535.98
2023-01-19T16:26:23.903Z,97545.02
2023-01-19T16:28:51.260Z,97540.73
2023-01-19T16:31:18.392Z,97545.31
2023-01-19T16:33:46.245Z,97547.19
2023-01-19T16:36:32.012Z,97549.19
2023-01-19T16:39:04.996Z,97554.52
2023-01-19T16:41:33.836Z,97558.19
2023-01-19T16:44:01.342Z,97561.25
2023-01-19T16:46:32.979Z,97562.54
2023-01-19T16:49:02.422Z,97565.56
2023-01-19T16:51:29.739Z,97564.86
2023-01-19T16:53:57.121Z,97566.10
2023-01-19T16:56:25.028Z,97564.42
2023-01-19T16:58:57.384Z,97565.23
2023-01-19T17:01:26.397Z,97566.63
2023-01-19T17:03:54.347Z,97563.64
2023-01-19T17:06:25.430Z,97567.91
2023-01-19T17:08:53.423Z,97566.78
2023-01-19T17:11:24.109Z,97566.84
2023-01-19T17:13:55.603Z,97563.93
2023-01-19T17:16:24.831Z,97561.67
2023-01-19T17:18:53.653Z,97567.23
2023-01-19T17:21:21.303Z,97568.38
2023-01-19T17:23:50.495Z,97571.93
2023-01-19T17:26:18.537Z,97575.06
2023-01-19T17:28:46.385Z,97579.00
2023-01-19T17:31:21.992Z,97574.90
2023-01-19T17:33:51.038Z,97578.17
2023-01-19T17:36:22.801Z,97576.19
2023-01-19T17:38:51.930Z,97579.19
2023-01-19T17:41:25.583Z,97580.48
2023-01-19T17:43:53.180Z,97582.53
2023-01-19T17:46:23.757Z,97581.50
2023-01-19T17:48:56.073Z,97585.01
2023-01-19T17:51:24.222Z,97588.25
2023-01-19T17:53:52.716Z,97587.82
2023-01-19T17:56:23.203Z,97589.65
2023-01-19T17:58:50.546Z,97587.29
2023-01-19T18:01:26.830Z,97589.92
2023-01-19T18:03:54.895Z,97587.83
2023-01-19T18:06:22.597Z,97588.85
2023-01-19T18:08:50.707Z,97593.86
2023-01-19T18:11:20.194Z,97597.02
2023-01-19T18:13:49.233Z,97597.58
2023-01-19T18:16:23.424Z,97599.34
2023-01-19T18:18:53.836Z,97594.50
2023-01-19T18:21:22.515Z,97599.06
2023-01-19T18:23:51.221Z,97605.81
2023-01-19T18:26:20.835Z,97604.30
2023-01-19T18:28:49.375Z,97605.97
2023-01-19T18:31:19.012Z,97606.68
2023-01-19T18:33:48.072Z,97611.10
2023-01-19T18:36:16.560Z,97614.55
2023-01-19T18:38:44.383Z,97623.00
2023-01-19T18:41:14.323Z,97627.00
2023-01-19T18:43:41.643Z,97630.88
2023-01-19T18:46:09.331Z,97629.73
2023-01-19T18:48:38.640Z,97632.86
2023-01-19T18:51:11.244Z,97629.95
2023-01-19T18:53:39.443Z,97638.04
2023-01-19T18:56:07.451Z,97644.88
2023-01-19T18:58:37.983Z,97648.38
2023-01-19T19:01:17.407Z,97644.87
2023-01-19T19:03:44.830Z,97641.91
2023-01-19T19:06:12.549Z,97650.95
2023-01-19T19:08:40.394Z,97662.06
2023-01-19T19:11:08.648Z,97662.27
2023-01-19T19:13:36.318Z,97664.48
2023-01-19T19:16:09.152Z,97667.39
2023-01-19T19:18:38.145Z,97666.04
2023-01-19T19:21:08.180Z,97674.34
2023-01-19T19:23:37.048Z,97672.41
2023-01-19T19:26:13.060Z,97669.17
2023-01-19T19:28:41.195Z,97672.79
2023-01-19T19:31:18.394Z,97678.00
2023-01-19T19:33:45.513Z,97687.59
2023-01-19T19:36:13.160Z,97690.13
2023-01-19T19:38:44.752Z,97694.16
2023-01-19T19:41:15.076Z,97692.55
2023-01-19T19:43:42.421Z,97693.68
2023-01-19T19:46:12.595Z,97695.46
2023-01-19T19:48:40.393Z,97698.64
2023-01-19T19:51:28.202Z,97700.63
2023-01-19T19:53:58.927Z,97701.60
2023-01-19T19:56:28.522Z,97701.11
2023-01-19T19:58:57.393Z,97703.59
2023-01-19T20:01:32.368Z,97704.93
2023-01-19T20:04:09.086Z,97707.73
2023-01-19T20:06:39.245Z,97713.13
2023-01-19T20:09:09.336Z,97720.03
2023-01-19T20:11:37.039Z,97723.10
2023-01-19T20:14:09.908Z,97729.03
2023-01-19T20:16:37.674Z,97737.54
2023-01-19T20:19:05.474Z,97737.05
2023-01-19T20:21:38.065Z,97740.05
2023-01-19T20:24:08.631Z,97740.48
2023-01-19T20:26:39.380Z,97747.10
2023-01-19T20:29:07.389Z,97747.27
2023-01-19T20:31:37.723Z,97747.59
2023-01-19T20:34:08.436Z,97751.84
2023-01-19T20:36:36.555Z,97752.45
2023-01-19T20:39:08.920Z,97755.04
2023-01-19T20:41:43.830Z,97763.39
2023-01-19T20:44:16.752Z,97764.80
2023-01-19T20:46:43.950Z,97762.05
2023-01-19T20:49:11.225Z,97762.80
2023-01-19T20:51:43.575Z,97763.83
2023-01-19T20:54:12.620Z,97761.60
2023-01-19T20:56:41.580Z,97759.39
2023-01-19T20:59:10.549Z,97764.27
2023-01-19T21:01:39.204Z,97767.98
2023-01-19T21:04:06.914Z,97772.19
2023-01-19T21:06:35.083Z,97771.33
2023-01-19T21:09:02.587Z,97772.20
2023-01-19T21:11:29.948Z,97770.63
2023-01-19T21:13:57.556Z,97769.25
2023-01-19T21:16:30.161Z,97771.78
2023-01-19T21:18:57.460Z,97774.48
2023-01-19T21:21:30.740Z,97771.52
2023-01-19T21:23:59.995Z,97772.27
2023-01-19T21:26:30.051Z,97778.31
2023-01-19T21:28:58.559Z,97785.95
2023-01-19T21:31:27.808Z,97790.08
2023-01-19T21:33:56.444Z,97794.48
2023-01-19T21:36:25.080Z,97796.27
2023-01-19T21:38:52.696Z,97798.95
2023-01-19T21:41:20.569Z,97801.44
2023-01-19T21:43:47.913Z,97805.17
2023-01-19T21:46:19.876Z,97812.11
2023-01-19T21:48:47.342Z,97815.99
2023-01-19T21:51:15.556Z,97813.73
2023-01-19T21:53:43.076Z,97812.06
2023-01-19T21:56:11.178Z,97815.02
2023-01-19T21:58:38.907Z,97817.98
2023-01-19T22:01:11.089Z,97824.34
2023-01-19T22:03:38.761Z,97827.61
2023-01-19T22:06:08.912Z,97833.92
2023-01-19T22:08:37.096Z,97833.80
2023-01-19T22:11:10.023Z,97834.13
2023-01-19T22:13:41.144Z,97831.19
2023-01-19T22:16:09.390Z,97832.12
2023-01-19T22:18:41.777Z,97831.73
2023-01-19T22:21:14.580Z,97830.20
2023-01-19T22:23:43.179Z,97829.52
2023-01-19T22:26:11.989Z,97828.85
2023-01-19T22:28:39.945Z,97835.02
2023-01-19T22:31:09.139Z,97835.83
2023-01-19T22:33:36.597Z,97842.23
2023-01-19T22:36:13.836Z,97843.89
2023-01-19T22:38:42.174Z,97844.48
2023-01-19T22:41:43.391Z,97844.27
2023-01-19T22:44:17.781Z,97846.83
2023-01-19T22:46:45.143Z,97838.80
2023-01-19T22:49:15.370Z,97840.33
2023-01-19T22:51:43.969Z,97840.77
2023-01-19T22:54:12.008Z,97838.55
2023-01-19T22:56:40.678Z,97838.02
2023-01-19T22:59:08.434Z,97837.80
2023-01-19T23:01:38.600Z,97837.04
2023-01-19T23:04:07.268Z,97836.76
2023-01-19T23:10:24.924Z,97852.16
2023-01-19T23:12:52.699Z,97857.03
2023-01-19T23:15:19.981Z,97861.33
2023-01-19T23:17:49.309Z,97865.09
2023-01-19T23:20:17.299Z,97871.59
2023-01-19T23:22:44.636Z,97879.36
2023-01-19T23:25:12.432Z,97883.42
2023-01-19T23:27:39.616Z,97882.21
2023-01-19T23:30:08.269Z,97885.85
2023-01-19T23:32:35.349Z,97883.70
2023-01-19T23:35:02.587Z,97884.19
2023-01-19T23:37:29.669Z,97881.70
2023-01-19T23:39:56.577Z,97879.80
2023-01-19T23:42:23.872Z,97884.23
2023-01-19T23:44:50.873Z,97880.23
2023-01-19T23:47:17.751Z,97878.77
2023-01-19T23:49:44.803Z,97874.32
2023-01-19T23:52:11.806Z,97875.73
2023-01-19T23:54:38.995Z,97877.34
2023-01-19T23:57:05.893Z,97881.04
2023-01-19T23:59:32.948Z,97876.16
